createdAt,value
2022-08-20T00:01:01.767Z,98450.91
2022-08-20T00:03:33.478Z,98456.31
2022-08-20T00:06:13.469Z,98457.88
2022-08-20T00:08:41.071Z,98456.19
2022-08-20T00:11:10.668Z,98460.50
2022-08-20T00:13:43.877Z,98458.47
2022-08-20T00:16:11.658Z,98464.69
2022-08-20T00:18:39.757Z,98464.66
2022-08-20T00:21:10.594Z,98464.56
2022-08-20T00:23:38.620Z,98468.41
2022-08-20T00:26:06.667Z,98475.44
2022-08-20T00:28:34.028Z,98484.09
2022-08-20T00:31:05.028Z,98467.47
2022-08-20T00:33:34.036Z,98472.91
2022-08-20T00:36:06.683Z,98470.06
2022-08-20T00:38:46.663Z,98472.03
2022-08-20T00:41:38.519Z,98465.66
2022-08-20T00:44:10.121Z,98470.38
2022-08-20T00:46:38.689Z,98473.47
2022-08-20T00:49:08.264Z,98480.53
2022-08-20T00:51:43.502Z,98477.66
2022-08-20T00:54:22.499Z,98489.06
2022-08-20T00:56:58.767Z,98486.69
2022-08-20T00:59:28.549Z,98481.91
2022-08-20T01:01:56.522Z,98486.59
2022-08-20T01:04:26.456Z,98477.88
2022-08-20T01:06:53.491Z,98482.59
2022-08-20T01:09:33.545Z,98491.66
2022-08-20T01:12:07.597Z,98502.31
2022-08-20T01:14:34.412Z,98500.81
2022-08-20T01:17:04.517Z,98500.81
2022-08-20T01:19:41.632Z,98504.00
2022-08-20T01:22:27.663Z,98496.53
2022-08-20T01:25:05.120Z,98497.31
2022-08-20T01:27:32.157Z,98497.31
2022-08-20T01:30:02.900Z,98502.03
2022-08-20T01:32:33.383Z,98494.56
2022-08-20T01:34:59.808Z,98499.28
2022-08-20T01:37:28.720Z,98500.88
2022-08-20T01:39:58.612Z,98508.34
2022-08-20T01:42:37.474Z,98509.59
2022-08-20T01:45:21.188Z,98517.41
2022-08-20T01:47:53.350Z,98518.19
2022-08-20T01:50:27.790Z,98511.91
2022-08-20T01:53:14.907Z,98518.19
2022-08-20T01:55:41.633Z,98518.94
2022-08-20T01:58:08.116Z,98528.38
2022-08-20T02:00:35.634Z,98529.97
2022-08-20T02:03:08.633Z,98521.25
2022-08-20T02:05:36.000Z,98533.06
2022-08-20T02:08:02.828Z,98533.88
2022-08-20T02:10:31.694Z,98528.72
2022-08-20T02:13:00.491Z,98529.06
2022-08-20T02:15:34.894Z,98529.06
2022-08-20T02:18:07.982Z,98533.78
2022-08-20T02:20:35.757Z,98527.03
2022-08-20T02:23:05.332Z,98532.91
2022-08-20T02:25:35.515Z,98527.75
2022-08-20T02:28:05.891Z,98540.66
2022-08-20T02:30:40.252Z,98540.22
2022-08-20T02:33:09.329Z,98545.25
2022-08-20T02:35:36.602Z,98539.31
2022-08-20T02:38:03.764Z,98539.66
2022-08-20T02:40:31.556Z,98534.16
2022-08-20T02:43:02.386Z,98534.16
2022-08-20T02:45:31.721Z,98532.56
2022-08-20T02:47:59.356Z,98530.94
2022-08-20T02:50:27.299Z,98530.50
2022-08-20T02:52:54.238Z,98534.06
2022-08-20T02:55:26.924Z,98520.66
2022-08-20T02:57:59.802Z,98524.19
2022-08-20T03:00:38.004Z,98517.09
2022-08-20T03:03:05.407Z,98516.66
2022-08-20T03:05:31.814Z,98510.38
2022-08-20T03:07:58.431Z,98517.38
2022-08-20T03:10:34.517Z,98511.44
2022-08-20T03:13:02.583Z,98517.31
2022-08-20T03:15:33.897Z,98518.47
2022-08-20T03:18:00.971Z,98511.69
2022-08-20T03:20:28.141Z,98519.59
2022-08-20T03:22:54.756Z,98517.31
2022-08-20T03:25:21.985Z,98511.44
2022-08-20T03:27:53.153Z,98513.03
2022-08-20T03:30:22.715Z,98514.97
2022-08-20T03:32:49.158Z,98517.38
2022-08-20T03:35:17.448Z,98516.56
2022-08-20T03:37:48.096Z,98515.78
2022-08-20T03:40:22.962Z,98513.03
2022-08-20T03:42:49.468Z,98512.66
2022-08-20T03:45:19.916Z,98515.41
2022-08-20T03:47:47.701Z,98509.47
2022-08-20T03:50:14.819Z,98514.97
2022-08-20T03:52:51.017Z,98518.09
2022-08-20T03:55:17.508Z,98522.00
2022-08-20T03:57:49.872Z,98528.66
2022-08-20T04:00:21.604Z,98525.91
2022-08-20T04:02:48.098Z,98527.53
2022-08-20T04:05:15.011Z,98531.41
2022-08-20T04:07:41.868Z,98528.22
2022-08-20T04:10:11.265Z,98534.53
2022-08-20T04:12:40.742Z,98529.81
2022-08-20T04:15:19.097Z,98531.41
2022-08-20T04:17:48.327Z,98520.38
2022-08-20T04:20:22.628Z,98525.91
2022-08-20T04:22:58.464Z,98533.34
2022-08-20T04:25:29.021Z,98531.41
2022-08-20T04:27:57.964Z,98540.13
2022-08-20T04:30:25.558Z,98547.22
2022-08-20T04:32:52.294Z,98541.72
2022-08-20T04:35:19.052Z,98545.69
2022-08-20T04:37:46.888Z,98548.09
2022-08-20T04:40:36.291Z,98548.91
2022-08-20T04:43:07.325Z,98541.78
2022-08-20T04:45:34.149Z,98545.34
2022-08-20T04:48:06.316Z,98546.50
2022-08-20T04:50:35.608Z,98548.09
2022-08-20T04:53:07.482Z,98549.72
2022-08-20T04:55:35.876Z,98552.09
2022-08-20T04:58:07.579Z,98544.28
2022-08-20T05:00:34.481Z,98550.94
2022-08-20T05:03:01.378Z,98555.72
2022-08-20T05:05:28.364Z,98550.69
2022-08-20T05:07:55.636Z,98554.22
2022-08-20T05:10:23.578Z,98559.50
2022-08-20T05:12:56.558Z,98564.28
2022-08-20T05:15:24.515Z,98567.94
2022-08-20T05:17:55.705Z,98566.78
2022-08-20T05:20:23.145Z,98567.13
2022-08-20T05:22:49.574Z,98573.44
2022-08-20T05:25:16.005Z,98580.81
2022-08-20T05:27:46.009Z,98579.22
2022-08-20T05:30:14.588Z,98582.34
2022-08-20T05:32:44.334Z,98588.63
2022-08-20T05:35:11.897Z,98589.66
2022-08-20T05:37:41.203Z,98593.41
2022-08-20T05:40:14.333Z,98589.69
2022-08-20T05:42:41.333Z,98596.63
2022-08-20T05:45:11.228Z,98596.97
2022-08-20T05:47:42.912Z,98605.94
2022-08-20T05:50:20.639Z,98601.94
2022-08-20T05:52:50.123Z,98602.81
2022-08-20T05:55:16.898Z,98602.13
2022-08-20T05:57:43.315Z,98598.94
2022-08-20T06:00:13.832Z,98603.53
2022-08-20T06:02:59.143Z,98599.44
2022-08-20T06:05:25.768Z,98597.66
2022-08-20T06:07:54.855Z,98599.88
2022-08-20T06:10:32.788Z,98601.56
2022-08-20T06:12:59.266Z,98603.72
2022-08-20T06:15:25.840Z,98597.59
2022-08-20T06:17:58.356Z,98604.16
2022-08-20T06:20:25.993Z,98602.03
2022-08-20T06:22:52.500Z,98605.81
2022-08-20T06:25:19.342Z,98604.22
2022-08-20T06:27:45.776Z,98603.81
2022-08-20T06:30:14.615Z,98605.75
2022-08-20T06:32:41.640Z,98611.34
2022-08-20T06:35:09.999Z,98611.09
2022-08-20T06:37:39.231Z,98601.41
2022-08-20T06:40:19.639Z,98603.19
2022-08-20T06:42:48.851Z,98604.06
2022-08-20T06:45:24.355Z,98606.81
2022-08-20T06:47:52.139Z,98607.25
2022-08-20T06:50:22.373Z,98616.84
2022-08-20T06:52:52.367Z,98617.28
2022-08-20T06:55:20.380Z,98621.47
2022-08-20T06:57:48.243Z,98615.97
2022-08-20T07:00:18.476Z,98614.09
2022-08-20T07:02:46.959Z,98617.00
2022-08-20T07:05:14.411Z,98613.53
2022-08-20T07:07:45.469Z,98622.31
2022-08-20T07:10:14.072Z,98616.16
2022-08-20T07:12:40.589Z,98610.38
2022-08-20T07:15:09.019Z,98625.50
2022-08-20T07:17:36.524Z,98622.72
2022-08-20T07:20:06.161Z,98620.34
2022-08-20T07:22:35.508Z,98617.13
2022-08-20T07:25:02.883Z,98621.78
2022-08-20T07:27:29.466Z,98622.84
2022-08-20T07:30:15.290Z,98628.34
2022-08-20T07:32:43.458Z,98633.06
2022-08-20T07:35:14.369Z,98631.13
2022-08-20T07:37:43.158Z,98635.91
2022-08-20T07:40:16.357Z,98638.09
2022-08-20T07:42:42.951Z,98633.13
2022-08-20T07:45:11.911Z,98635.22
2022-08-20T07:47:40.409Z,98645.53
2022-08-20T07:50:08.469Z,98650.06
2022-08-20T07:52:37.868Z,98647.59
2022-08-20T07:55:07.391Z,98644.41
2022-08-20T07:57:34.205Z,98652.56
2022-08-20T08:00:03.367Z,98649.59
2022-08-20T08:02:29.849Z,98649.81
2022-08-20T08:04:57.676Z,98636.94
2022-08-20T08:07:25.247Z,98643.50
2022-08-20T08:09:51.770Z,98641.66
2022-08-20T08:12:18.417Z,98646.44
2022-08-20T08:14:47.254Z,98646.13
2022-08-20T08:17:16.663Z,98640.56
2022-08-20T08:19:49.038Z,98631.94
2022-08-20T08:22:19.222Z,98642.38
2022-08-20T08:24:57.669Z,98635.75
2022-08-20T08:27:24.585Z,98630.19
2022-08-20T08:29:51.044Z,98628.09
2022-08-20T08:32:17.470Z,98625.97
2022-08-20T08:34:48.014Z,98617.41
2022-08-20T08:37:14.469Z,98619.84
2022-08-20T08:39:40.935Z,98623.53
2022-08-20T08:42:25.904Z,98630.94
2022-08-20T08:44:53.976Z,98628.19
2022-08-20T08:47:41.167Z,98642.16
2022-08-20T08:50:13.742Z,98632.88
2022-08-20T08:52:41.262Z,98633.75
2022-08-20T08:55:16.010Z,98629.38
2022-08-20T08:57:42.583Z,98641.28
2022-08-20T09:00:16.303Z,98638.22
2022-08-20T09:03:07.448Z,98631.16
2022-08-20T09:05:46.254Z,98635.16
2022-08-20T09:08:17.124Z,98632.03
2022-08-20T09:10:44.952Z,98629.31
2022-08-20T09:13:12.442Z,98625.41
2022-08-20T09:15:38.867Z,98627.81
2022-08-20T09:18:05.332Z,98628.28
2022-08-20T09:20:32.146Z,98629.59
2022-08-20T09:22:58.796Z,98629.28
2022-08-20T09:25:25.456Z,98622.22
2022-08-20T09:27:51.980Z,98619.84
2022-08-20T09:30:18.582Z,98619.28
2022-08-20T09:32:46.213Z,98630.22
2022-08-20T09:35:13.496Z,98620.81
2022-08-20T09:37:40.033Z,98620.31
2022-08-20T09:40:08.775Z,98617.91
2022-08-20T09:42:41.040Z,98626.16
2022-08-20T09:45:10.847Z,98620.13
2022-08-20T09:47:38.761Z,98613.72
2022-08-20T09:50:10.844Z,98616.78
2022-08-20T09:52:48.962Z,98606.84
2022-08-20T09:55:17.521Z,98607.31
2022-08-20T09:57:44.397Z,98614.50
2022-08-20T10:00:20.170Z,98612.88
2022-08-20T10:02:47.356Z,98611.66
2022-08-20T10:05:14.526Z,98619.16
2022-08-20T10:07:41.495Z,98622.00
2022-08-20T10:10:10.813Z,98619.31
2022-08-20T10:12:37.404Z,98632.06
2022-08-20T10:15:04.218Z,98627.25
2022-08-20T10:17:30.838Z,98625.19
2022-08-20T10:19:57.304Z,98626.38
2022-08-20T10:22:24.410Z,98636.75
2022-08-20T10:24:50.878Z,98626.19
2022-08-20T10:27:17.269Z,98615.66
2022-08-20T10:29:46.855Z,98619.75
2022-08-20T10:32:15.214Z,98624.44
2022-08-20T10:34:43.942Z,98617.44
2022-08-20T10:37:15.705Z,98623.13
2022-08-20T10:39:42.260Z,98624.03
2022-08-20T10:42:08.718Z,98621.44
2022-08-20T10:44:35.140Z,98622.31
2022-08-20T10:47:37.096Z,98621.25
2022-08-20T10:50:06.327Z,98614.09
2022-08-20T10:52:32.963Z,98620.03
2022-08-20T10:54:59.406Z,98616.09
2022-08-20T10:57:28.506Z,98602.28
2022-08-20T10:59:57.104Z,98604.75
2022-08-20T11:02:24.897Z,98605.72
2022-08-20T11:04:52.233Z,98608.19
2022-08-20T11:07:50.823Z,98619.63
2022-08-20T11:10:18.615Z,98623.59
2022-08-20T11:12:46.142Z,98616.09
2022-08-20T11:15:13.979Z,98609.03
2022-08-20T11:17:42.502Z,98625.28
2022-08-20T11:20:11.426Z,98617.78
2022-08-20T11:22:38.037Z,98614.69
2022-08-20T11:25:06.229Z,98628.09
2022-08-20T11:27:35.472Z,98623.75
2022-08-20T11:30:02.684Z,98629.28
2022-08-20T11:32:29.187Z,98630.53
2022-08-20T11:34:55.639Z,98625.44
2022-08-20T11:37:24.425Z,98617.91
2022-08-20T11:39:52.122Z,98621.50
2022-08-20T11:42:18.706Z,98623.94
2022-08-20T11:44:45.459Z,98627.22
2022-08-20T11:47:21.930Z,98627.31
2022-08-20T11:49:57.020Z,98631.78
2022-08-20T11:52:23.591Z,98627.88
2022-08-20T11:54:54.745Z,98633.50
2022-08-20T11:57:31.870Z,98629.59
2022-08-20T12:00:00.472Z,98639.00
2022-08-20T12:02:28.254Z,98640.19
2022-08-20T12:04:56.607Z,98631.88
2022-08-20T12:07:25.096Z,98640.91
2022-08-20T12:09:52.097Z,98641.28
2022-08-20T12:12:20.627Z,98649.03
2022-08-20T12:14:47.155Z,98652.00
2022-08-20T12:17:32.709Z,98659.00
2022-08-20T12:20:02.492Z,98654.78
2022-08-20T12:22:29.041Z,98657.72
2022-08-20T12:24:55.883Z,98646.97
2022-08-20T12:27:27.116Z,98643.41
2022-08-20T12:29:55.732Z,98648.19
2022-08-20T12:32:24.827Z,98646.66
2022-08-20T12:34:51.858Z,98646.28
2022-08-20T12:37:22.418Z,98646.22
2022-08-20T12:39:52.475Z,98634.63
2022-08-20T12:42:20.117Z,98633.53
2022-08-20T12:44:46.990Z,98634.84
2022-08-20T12:47:19.739Z,98630.63
2022-08-20T12:49:49.464Z,98631.28
2022-08-20T12:52:18.276Z,98630.44
2022-08-20T12:54:45.608Z,98626.81
2022-08-20T12:57:33.799Z,98631.16
2022-08-20T13:00:20.816Z,98642.94
2022-08-20T13:02:48.601Z,98649.97
2022-08-20T13:05:16.183Z,98669.44
2022-08-20T13:07:44.248Z,98675.91
2022-08-20T13:10:23.862Z,98676.88
2022-08-20T13:12:51.138Z,98676.53
2022-08-20T13:15:18.874Z,98678.22
2022-08-20T13:17:51.041Z,98669.84
2022-08-20T13:20:18.227Z,98671.88
2022-08-20T13:22:44.666Z,98654.00
2022-08-20T13:25:12.853Z,98654.41
2022-08-20T13:27:44.279Z,98658.16
2022-08-20T13:30:14.757Z,98658.47
2022-08-20T13:32:41.894Z,98664.75
2022-08-20T13:35:09.250Z,98654.53
2022-08-20T13:37:35.869Z,98651.31
2022-08-20T13:40:03.773Z,98648.97
2022-08-20T13:42:30.668Z,98653.06
2022-08-20T13:44:57.186Z,98636.25
2022-08-20T13:47:25.042Z,98645.53
2022-08-20T13:50:00.265Z,98653.69
2022-08-20T13:52:27.781Z,98655.44
2022-08-20T13:54:54.468Z,98656.88
2022-08-20T13:57:22.421Z,98653.44
2022-08-20T13:59:51.669Z,98644.84
2022-08-20T14:02:19.429Z,98638.16
2022-08-20T14:04:48.080Z,98626.78
2022-08-20T14:07:22.347Z,98629.25
2022-08-20T14:09:53.841Z,98626.81
2022-08-20T14:12:23.228Z,98619.00
2022-08-20T14:14:51.654Z,98619.44
2022-08-20T14:17:28.297Z,98627.91
2022-08-20T14:20:02.285Z,98626.69
2022-08-20T14:22:29.826Z,98629.31
2022-08-20T14:24:56.712Z,98617.84
2022-08-20T14:27:29.076Z,98622.38
2022-08-20T14:29:56.294Z,98615.34
2022-08-20T14:32:22.785Z,98605.59
2022-08-20T14:34:49.433Z,98605.28
2022-08-20T14:37:17.436Z,98604.25
2022-08-20T14:39:48.017Z,98598.31
2022-08-20T14:42:14.699Z,98601.31
2022-08-20T14:44:41.848Z,98596.00
2022-08-20T14:47:17.049Z,98587.94
2022-08-20T14:49:44.780Z,98585.78
2022-08-20T14:52:12.591Z,98583.72
2022-08-20T14:54:40.015Z,98585.44
2022-08-20T14:57:12.879Z,98595.25
2022-08-20T14:59:40.473Z,98589.91
2022-08-20T15:02:09.792Z,98597.19
2022-08-20T15:04:37.291Z,98581.91
2022-08-20T15:07:10.843Z,98586.75
2022-08-20T15:09:39.843Z,98579.28
2022-08-20T15:12:06.416Z,98579.28
2022-08-20T15:14:32.887Z,98573.88
2022-08-20T15:17:00.417Z,98564.72
2022-08-20T15:19:26.877Z,98573.91
2022-08-20T15:21:53.352Z,98560.44
2022-08-20T15:24:19.857Z,98556.56
2022-08-20T15:26:46.860Z,98549.94
2022-08-20T15:29:22.761Z,98553.53
2022-08-20T15:31:50.744Z,98549.59
2022-08-20T15:34:17.844Z,98557.94
2022-08-20T15:36:44.775Z,98556.81
2022-08-20T15:39:11.511Z,98554.84
2022-08-20T15:41:38.033Z,98551.25
2022-08-20T15:44:04.860Z,98551.69
2022-08-20T15:46:36.051Z,98550.44
2022-08-20T15:49:04.698Z,98560.34
2022-08-20T15:51:42.452Z,98566.22
2022-08-20T15:54:39.060Z,98558.63
2022-08-20T15:57:14.110Z,98561.81
2022-08-20T15:59:55.765Z,98560.53
2022-08-20T16:03:07.242Z,98569.34
2022-08-20T16:05:44.056Z,98571.78
2022-08-20T16:08:19.649Z,98569.22
2022-08-20T16:11:05.362Z,98570.72
2022-08-20T16:13:44.490Z,98575.88
2022-08-20T16:16:29.325Z,98576.63
2022-08-20T16:18:56.022Z,98581.00
2022-08-20T16:21:36.781Z,98582.19
2022-08-20T16:24:06.710Z,98582.53
2022-08-20T16:26:59.641Z,98582.50
2022-08-20T16:29:45.662Z,98589.56
2022-08-20T16:32:17.528Z,98587.09
2022-08-20T16:34:57.289Z,98586.28
2022-08-20T16:37:54.556Z,98591.03
2022-08-20T16:40:32.843Z,98594.19
2022-08-20T16:43:04.249Z,98588.66
2022-08-20T16:45:44.010Z,98591.03
2022-08-20T16:48:19.432Z,98582.31
2022-08-20T16:50:57.241Z,98590.22
2022-08-20T16:53:26.230Z,98587.00
2022-08-20T16:55:53.706Z,98591.34
2022-08-20T16:58:20.792Z,98587.78
2022-08-20T17:00:47.784Z,98594.09
2022-08-20T17:03:33.459Z,98594.91
2022-08-20T17:06:25.316Z,98590.53
2022-08-20T17:08:52.088Z,98581.84
2022-08-20T17:11:31.007Z,98589.31
2022-08-20T17:14:13.579Z,98574.28
2022-08-20T17:16:44.931Z,98577.03
2022-08-20T17:19:31.410Z,98579.81
2022-08-20T17:22:12.419Z,98578.63
2022-08-20T17:24:40.105Z,98587.31
2022-08-20T17:27:13.395Z,98582.56
2022-08-20T17:29:55.051Z,98582.97
2022-08-20T17:32:28.009Z,98580.53
2022-08-20T17:34:58.378Z,98588.78
2022-08-20T17:37:29.226Z,98588.03
2022-08-20T17:40:11.244Z,98588.44
2022-08-20T17:42:50.666Z,98586.06
2022-08-20T17:45:27.287Z,98593.94
2022-08-20T17:47:58.153Z,98594.75
2022-08-20T17:50:31.707Z,98599.00
2022-08-20T17:53:21.167Z,98589.44
2022-08-20T17:55:54.987Z,98599.25
2022-08-20T17:58:54.103Z,98595.66
2022-08-20T18:01:22.631Z,98594.38
2022-08-20T18:03:51.821Z,98599.81
2022-08-20T18:06:37.159Z,98598.53
2022-08-20T18:09:20.104Z,98590.13
2022-08-20T18:11:56.600Z,98602.25
2022-08-20T18:14:32.803Z,98604.47
2022-08-20T18:17:31.656Z,98603.06
2022-08-20T18:20:47.868Z,98607.69
2022-08-20T18:23:32.791Z,98604.38
2022-08-20T18:26:04.942Z,98605.88
2022-08-20T18:28:38.982Z,98608.56
2022-08-20T18:45:31.340Z,98620.25
2022-08-20T18:47:58.170Z,98620.13
2022-08-20T18:50:30.734Z,98619.19
2022-08-20T18:53:17.062Z,98618.97
2022-08-20T18:55:47.164Z,98623.22
2022-08-20T18:58:28.472Z,98629.03
2022-08-20T19:00:55.138Z,98622.63
2022-08-20T19:03:41.507Z,98628.88
2022-08-20T19:06:29.767Z,98624.88
2022-08-20T19:09:26.275Z,98625.63
2022-08-20T19:12:30.606Z,98634.19
2022-08-20T19:15:07.075Z,98627.81
2022-08-20T19:17:46.009Z,98635.09
2022-08-20T19:20:22.237Z,98635.41
2022-08-20T19:22:51.561Z,98641.97
2022-08-20T19:25:40.273Z,98635.22
2022-08-20T19:28:25.530Z,98637.53
2022-08-20T19:30:52.209Z,98642.19
2022-08-20T19:33:31.326Z,98636.56
2022-08-20T19:36:19.641Z,98643.63
2022-08-20T19:38:51.960Z,98646.38
2022-08-20T19:41:31.144Z,98637.69
2022-08-20T19:43:59.771Z,98641.13
2022-08-20T19:46:46.128Z,98648.38
2022-08-20T19:49:43.262Z,98651.69
2022-08-20T19:52:27.951Z,98645.56
2022-08-20T19:55:01.353Z,98657.59
2022-08-20T19:57:30.076Z,98659.00
2022-08-20T20:00:09.115Z,98654.19
2022-08-20T20:02:36.212Z,98658.03
2022-08-20T20:05:07.142Z,98656.34
2022-08-20T20:07:47.401Z,98653.94
2022-08-20T20:10:32.756Z,98649.09
2022-08-20T20:13:11.882Z,98649.03
2022-08-20T20:15:39.743Z,98654.06
2022-08-20T20:18:08.533Z,98650.34
2022-08-20T20:20:50.329Z,98655.66
2022-08-20T20:23:27.298Z,98660.38
2022-08-20T20:25:58.923Z,98659.94
2022-08-20T20:28:30.004Z,98659.50
2022-08-20T20:31:13.180Z,98656.28
2022-08-20T20:33:44.326Z,98655.72
2022-08-20T20:36:29.974Z,98656.09
2022-08-20T20:39:04.607Z,98659.44
2022-08-20T20:41:32.494Z,98655.47
2022-08-20T20:44:02.357Z,98656.63
2022-08-20T20:46:32.034Z,98655.72
2022-08-20T20:49:20.141Z,98657.91
2022-08-20T20:51:58.740Z,98653.47
2022-08-20T20:54:29.870Z,98655.75
2022-08-20T20:57:19.403Z,98650.88
2022-08-20T21:00:08.022Z,98650.34
2022-08-20T21:02:34.457Z,98653.78
2022-08-20T21:05:00.994Z,98648.50
2022-08-20T21:07:27.440Z,98653.78
2022-08-20T21:09:56.634Z,98661.16
2022-08-20T21:12:23.175Z,98656.81
2022-08-20T21:14:49.942Z,98652.69
2022-08-20T21:17:21.883Z,98649.47
2022-08-20T21:19:50.869Z,98654.53
2022-08-20T21:22:19.148Z,98652.81
2022-08-20T21:24:46.426Z,98660.19
2022-08-20T21:27:13.047Z,98662.34
2022-08-20T21:29:39.928Z,98659.41
2022-08-20T21:32:06.671Z,98662.72
2022-08-20T21:34:33.180Z,98655.63
2022-08-20T21:36:59.572Z,98661.13
2022-08-20T21:39:27.022Z,98664.91
2022-08-20T21:41:56.066Z,98671.13
2022-08-20T21:44:27.056Z,98665.25
2022-08-20T21:46:56.439Z,98668.13
2022-08-20T21:49:23.827Z,98672.34
2022-08-20T21:51:51.476Z,98674.22
2022-08-20T21:54:19.137Z,98668.59
2022-08-20T21:56:49.730Z,98667.66
2022-08-20T21:59:17.179Z,98673.63
2022-08-20T22:01:43.770Z,98675.13
2022-08-20T22:04:10.208Z,98670.41
2022-08-20T22:06:36.707Z,98676.47
2022-08-20T22:09:03.301Z,98668.16
2022-08-20T22:11:29.831Z,98668.16
2022-08-20T22:13:56.394Z,98678.44
2022-08-20T22:16:24.038Z,98675.69
2022-08-20T22:18:51.628Z,98675.16
2022-08-20T22:21:24.363Z,98678.78
2022-08-20T22:23:52.116Z,98685.06
2022-08-20T22:26:20.288Z,98686.06
2022-08-20T22:28:51.224Z,98686.88
2022-08-20T22:31:22.693Z,98686.66
2022-08-20T22:33:49.136Z,98691.34
2022-08-20T22:36:15.932Z,98697.66
2022-08-20T22:38:42.415Z,98699.59
2022-08-20T22:41:09.921Z,98688.13
2022-08-20T22:43:36.792Z,98690.22
2022-08-20T22:46:15.014Z,98688.59
2022-08-20T22:48:43.240Z,98692.81
2022-08-20T22:51:20.202Z,98693.97
2022-08-20T22:53:47.368Z,98695.13
2022-08-20T22:56:21.618Z,98689.97
2022-08-20T22:58:50.085Z,98690.53
2022-08-20T23:01:17.438Z,98691.53
2022-08-20T23:03:45.389Z,98688.69
2022-08-20T23:06:13.592Z,98682.72
2022-08-20T23:08:41.784Z,98691.66
2022-08-20T23:11:08.902Z,98685.72
2022-08-20T23:13:35.535Z,98688.47
2022-08-20T23:16:02.352Z,98692.22
2022-08-20T23:18:29.010Z,98687.06
2022-08-20T23:20:57.040Z,98688.66
2022-08-20T23:23:25.405Z,98699.19
2022-08-20T23:25:53.436Z,98694.84
2022-08-20T23:28:22.534Z,98695.97
2022-08-20T23:30:49.016Z,98696.66
2022-08-20T23:33:15.599Z,98695.50
2022-08-20T23:35:42.782Z,98696.66
2022-08-20T23:38:09.478Z,98698.00
2022-08-20T23:40:37.066Z,98697.06
2022-08-20T23:43:04.318Z,98694.22
2022-08-20T23:45:31.944Z,98691.03
2022-08-20T23:47:58.441Z,98696.81
2022-08-20T23:50:27.943Z,98692.03
2022-08-20T23:52:56.541Z,98687.19
2022-08-20T23:55:23.231Z,98682.41
2022-08-20T23:57:50.445Z,98678.53
